Flugplatz Spangdahlem Air Base

Bericht für ETAD

vom 10.04. um 11:11 UTC

Wind 6 kt aus 170°

Sichtweite 10 km oder mehr

bedeckt in 600 ft

Temperatur 8.0°C

Taupunkt 8.0°C

Luftfeuchtigkeit 100%

Luftdruck 1012 hPa

ETAD 101111Z AUTO 17006KT 9999 OVC006 08/08 A2989 RMK AO2 SLP120 $

Prognose für ETAD

vom 10.04. um 11:20 UTC

Zwischen 11:00 UTC und 14:00 UTC

Wind 4 kt aus 220°

Sichtweite 8000 m

schwacher Regen

bedeckt in 600 ft


Zwischen 11:00 UTC und 14:00 UTC zeitweise

bedeckt in 400 ft


Zwischen 14:00 und 15:00 UTC übergehend zu

Wind 8 kt aus 200°

Sichtweite 10 km oder mehr

keine signifikanten Wettererscheinungen

bedeckt in 1000 ft


Zwischen 19:00 und 20:00 UTC übergehend zu

Wind 8 kt aus 180°

Sichtweite 9000 m

schwacher Regenschauer

bedeckt in 1000 ft


Am 11.04. zwischen 01:00 und 02:00 UTC übergehend zu

Wind 5 kt aus 200°

Sichtweite 10 km oder mehr

keine signifikanten Wettererscheinungen

bedeckt in 500 ft


Am 11.04. zwischen 05:00 und 06:00 UTC übergehend zu

Wind 10 kt aus 200°

Sichtweite 8000 m

schwacher Regen

bedeckt in 700 ft

TAF AMD ETAD 101120Z 1011/1112 22004KT 8000 -RA OVC006 620609 QNH2982INS TEMPO 1011/1014 OVC004 BECMG 1014/1015 20008KT 9999 NSW OVC010 620609 QNH2978INS BECMG 1019/1020 18008KT 9000 -SHRA OVC010 610609 QNH2974INS BECMG 1101/1102 20005KT 9999 NSW OVC005 620609 QNH2974INS BECMG 1105/1106 20010KT 8000 -RA OVC007 620609 QNH2975INS TX10/1014Z TN08/1011Z
Impressum